ACA322 CYVR-CYEG
Flight info
| Callsign | ACA322 |
|---|---|
| Flight time | 1h 18m |
| Altitude | 37000 |
| Route | DCT VIDRI Q949 ELLKS ELLKS3 |
| Aircraft | B38M/M-V/N |
Departure
| Time | 2026-05-03 22:20 |
|---|---|
| Airport | Vancouver International Airport (CYVR) |
Arrival
| Time | 2026-05-03 23:39 |
|---|---|
| Airport | Edmonton International Airport (CYEG) |
| Time | Latitude | Longitude | Altitude | Speed | Heading |
|---|---|---|---|---|---|
| 2026-05-03 21:54 | 49.19601 | -123.18283 | 25 ft | 0 kts | 199° |
| 2026-05-03 22:06 | 49.19616 | -123.18275 | 28 ft | 2 kts | 201° |
| 2026-05-03 22:06 | 49.19631 | -123.18266 | 26 ft | 2 kts | 201° |
| 2026-05-03 22:06 | 49.19646 | -123.18257 | 25 ft | 2 kts | 205° |
| 2026-05-03 22:07 | 49.19661 | -123.18245 | 30 ft | 2 kts | 217° |
| 2026-05-03 22:07 | 49.19668 | -123.18225 | 28 ft | 2 kts | 293° |
| 2026-05-03 22:07 | 49.19667 | -123.18220 | 25 ft | 0 kts | 298° |
| 2026-05-03 22:13 | 49.19673 | -123.18250 | 39 ft | 9 kts | 285° |
| 2026-05-03 22:13 | 49.19694 | -123.18406 | 25 ft | 20 kts | 280° |
| 2026-05-03 22:13 | 49.19715 | -123.18620 | 26 ft | 17 kts | 259° |
| 2026-05-03 22:14 | 49.19662 | -123.18672 | 29 ft | 11 kts | 192° |
| 2026-05-03 22:14 | 49.19546 | -123.18703 | 26 ft | 20 kts | 191° |
| 2026-05-03 22:14 | 49.19505 | -123.18716 | 25 ft | 0 kts | 190° |
| 2026-05-03 22:15 | 49.19477 | -123.18723 | 25 ft | 11 kts | 190° |
| 2026-05-03 22:15 | 49.19379 | -123.18691 | 27 ft | 17 kts | 171° |
| 2026-05-03 22:15 | 49.19247 | -123.18727 | 25 ft | 24 kts | 191° |
| 2026-05-03 22:16 | 49.19140 | -123.18673 | 28 ft | 17 kts | 142° |
| 2026-05-03 22:16 | 49.19009 | -123.18520 | 29 ft | 30 kts | 142° |
| 2026-05-03 22:16 | 49.18931 | -123.18265 | 27 ft | 24 kts | 99° |
| 2026-05-03 22:16 | 49.18903 | -123.18004 | 28 ft | 26 kts | 98° |
| 2026-05-03 22:17 | 49.18871 | -123.17720 | 27 ft | 28 kts | 99° |
| 2026-05-03 22:17 | 49.18844 | -123.17480 | 29 ft | 20 kts | 100° |
| 2026-05-03 22:17 | 49.18818 | -123.17252 | 29 ft | 23 kts | 99° |
| 2026-05-03 22:17 | 49.18789 | -123.16995 | 29 ft | 26 kts | 99° |
| 2026-05-03 22:18 | 49.18764 | -123.16776 | 25 ft | 17 kts | 100° |
| 2026-05-03 22:18 | 49.18742 | -123.16592 | 27 ft | 19 kts | 100° |
| 2026-05-03 22:18 | 49.18721 | -123.16395 | 26 ft | 19 kts | 99° |
| 2026-05-03 22:18 | 49.18657 | -123.16215 | 29 ft | 21 kts | 131° |
| 2026-05-03 22:19 | 49.18596 | -123.16041 | 28 ft | 14 kts | 151° |
| 2026-05-03 22:19 | 49.18515 | -123.16046 | 27 ft | 12 kts | 194° |
| 2026-05-03 22:19 | 49.18478 | -123.16063 | 27 ft | 0 kts | 212° |
| 2026-05-03 22:19 | 49.18472 | -123.16107 | 26 ft | 10 kts | 271° |
| 2026-05-03 22:20 | 49.18499 | -123.16322 | 26 ft | 42 kts | 281° |
| 2026-05-03 22:20 | 49.18598 | -123.17194 | 26 ft | 121 kts | 280° |
| 2026-05-03 22:20 | 49.18784 | -123.18785 | 127 ft | 175 kts | 281° |
| 2026-05-03 22:20 | 49.18964 | -123.20662 | 1072 ft | 177 kts | 278° |
| 2026-05-03 22:21 | 49.19093 | -123.22519 | 2088 ft | 184 kts | 270° |
| 2026-05-03 22:21 | 49.18978 | -123.24564 | 2710 ft | 207 kts | 263° |
| 2026-05-03 22:21 | 49.18785 | -123.26863 | 3375 ft | 229 kts | 263° |
| 2026-05-03 22:21 | 49.18570 | -123.29390 | 4075 ft | 248 kts | 263° |
| 2026-05-03 22:22 | 49.18346 | -123.32031 | 5070 ft | 257 kts | 263° |
| 2026-05-03 22:22 | 49.18109 | -123.34826 | 5829 ft | 274 kts | 263° |
| 2026-05-03 22:22 | 49.17861 | -123.37756 | 6820 ft | 279 kts | 263° |
| 2026-05-03 22:22 | 49.17610 | -123.40714 | 7820 ft | 284 kts | 263° |
| 2026-05-03 22:23 | 49.17442 | -123.43734 | 8792 ft | 288 kts | 275° |
| 2026-05-03 22:23 | 49.17999 | -123.46655 | 9806 ft | 289 kts | 301° |
| 2026-05-03 22:23 | 49.19295 | -123.48966 | 10533 ft | 298 kts | 324° |
| 2026-05-03 22:23 | 49.21198 | -123.50378 | 11038 ft | 314 kts | 348° |
| 2026-05-03 22:24 | 49.23417 | -123.50579 | 11659 ft | 326 kts | 4° |
| 2026-05-03 22:24 | 49.25719 | -123.50271 | 12393 ft | 335 kts | 5° |
| 2026-05-03 22:24 | 49.28028 | -123.49800 | 13320 ft | 338 kts | 16° |
| 2026-05-03 22:24 | 49.30084 | -123.48060 | 14166 ft | 343 kts | 43° |
| 2026-05-03 22:25 | 49.31504 | -123.45104 | 14966 ft | 348 kts | 58° |
| 2026-05-03 22:25 | 49.32852 | -123.41992 | 15656 ft | 355 kts | 54° |
| 2026-05-03 22:25 | 49.34291 | -123.38909 | 15866 ft | 355 kts | 53° |
| 2026-05-03 22:25 | 49.35744 | -123.35841 | 15966 ft | 355 kts | 53° |
| 2026-05-03 22:26 | 49.37184 | -123.32829 | 15989 ft | 355 kts | 52° |
| 2026-05-03 22:26 | 49.38649 | -123.29782 | 15986 ft | 355 kts | 52° |
| 2026-05-03 22:26 | 49.40125 | -123.26723 | 16298 ft | 357 kts | 52° |
| 2026-05-03 22:26 | 49.41646 | -123.23709 | 17172 ft | 358 kts | 50° |
| 2026-05-03 22:27 | 49.43223 | -123.20727 | 17932 ft | 362 kts | 50° |
| 2026-05-03 22:27 | 49.44804 | -123.17711 | 18626 ft | 366 kts | 50° |
| 2026-05-03 22:27 | 49.46410 | -123.14636 | 19318 ft | 368 kts | 50° |
| 2026-05-03 22:27 | 49.47990 | -123.11603 | 19993 ft | 370 kts | 50° |
| 2026-05-03 22:28 | 49.49605 | -123.08497 | 20682 ft | 372 kts | 50° |
| 2026-05-03 22:28 | 49.51248 | -123.05335 | 21365 ft | 375 kts | 50° |
| 2026-05-03 22:28 | 49.52859 | -123.02228 | 22037 ft | 378 kts | 50° |
| 2026-05-03 22:28 | 49.54499 | -122.99062 | 22679 ft | 380 kts | 50° |
| 2026-05-03 22:29 | 49.56153 | -122.95866 | 23348 ft | 382 kts | 50° |
| 2026-05-03 22:29 | 49.57814 | -122.92654 | 23911 ft | 385 kts | 50° |
| 2026-05-03 22:29 | 49.59489 | -122.89410 | 24470 ft | 387 kts | 49° |
| 2026-05-03 22:29 | 49.61162 | -122.86165 | 25076 ft | 389 kts | 50° |
| 2026-05-03 22:30 | 49.62854 | -122.82879 | 25530 ft | 393 kts | 50° |
| 2026-05-03 22:30 | 49.64557 | -122.79569 | 26042 ft | 394 kts | 50° |
| 2026-05-03 22:30 | 49.66263 | -122.76247 | 26539 ft | 396 kts | 50° |
| 2026-05-03 22:30 | 49.67958 | -122.72942 | 26979 ft | 400 kts | 50° |
| 2026-05-03 22:31 | 49.69687 | -122.69569 | 27468 ft | 402 kts | 50° |
| 2026-05-03 22:31 | 49.71429 | -122.66165 | 27898 ft | 405 kts | 50° |
| 2026-05-03 22:31 | 49.73182 | -122.62735 | 28288 ft | 408 kts | 50° |
| 2026-05-03 22:31 | 49.74943 | -122.59283 | 28763 ft | 409 kts | 50° |
| 2026-05-03 22:32 | 49.76707 | -122.55824 | 29243 ft | 411 kts | 50° |
| 2026-05-03 22:32 | 49.78484 | -122.52333 | 29631 ft | 415 kts | 49° |
| 2026-05-03 22:32 | 49.80270 | -122.48820 | 30100 ft | 416 kts | 50° |
| 2026-05-03 22:32 | 49.82064 | -122.45288 | 30417 ft | 419 kts | 49° |
| 2026-05-03 22:33 | 49.83845 | -122.41774 | 30890 ft | 420 kts | 49° |
| 2026-05-03 22:33 | 49.85647 | -122.38216 | 31236 ft | 422 kts | 49° |
| 2026-05-03 22:33 | 49.87469 | -122.34613 | 31595 ft | 424 kts | 49° |
| 2026-05-03 22:33 | 49.89285 | -122.31017 | 32042 ft | 425 kts | 49° |
| 2026-05-03 22:34 | 49.91106 | -122.27405 | 32485 ft | 424 kts | 49° |
| 2026-05-03 22:34 | 49.92917 | -122.23808 | 32893 ft | 422 kts | 49° |
| 2026-05-03 22:34 | 49.94718 | -122.20229 | 33424 ft | 420 kts | 49° |
| 2026-05-03 22:34 | 49.96505 | -122.16669 | 33978 ft | 416 kts | 49° |
| 2026-05-03 22:35 | 49.98283 | -122.13125 | 34415 ft | 415 kts | 48° |
| 2026-05-03 22:35 | 50.00049 | -122.09599 | 34820 ft | 414 kts | 48° |
| 2026-05-03 22:35 | 50.01794 | -122.06112 | 35180 ft | 414 kts | 48° |
| 2026-05-03 22:35 | 50.03561 | -122.02576 | 35506 ft | 414 kts | 48° |
| 2026-05-03 22:36 | 50.05327 | -121.99033 | 35875 ft | 413 kts | 48° |
| 2026-05-03 22:36 | 50.07084 | -121.95508 | 36262 ft | 413 kts | 48° |
| 2026-05-03 22:36 | 50.08845 | -121.91969 | 36549 ft | 413 kts | 48° |
| 2026-05-03 22:36 | 50.10602 | -121.88432 | 36955 ft | 414 kts | 48° |
| 2026-05-03 22:37 | 50.12368 | -121.84874 | 36991 ft | 415 kts | 48° |
| 2026-05-03 22:37 | 50.15846 | -121.77849 | 36968 ft | 410 kts | 48° |
| 2026-05-03 22:38 | 50.19324 | -121.70807 | 36981 ft | 412 kts | 48° |
| 2026-05-03 22:38 | 50.22811 | -121.63728 | 36952 ft | 411 kts | 48° |
| 2026-05-03 22:39 | 50.26295 | -121.56636 | 36939 ft | 412 kts | 48° |
| 2026-05-03 22:39 | 50.29778 | -121.49524 | 36945 ft | 411 kts | 48° |
| 2026-05-03 22:40 | 50.33234 | -121.42452 | 36968 ft | 413 kts | 48° |
| 2026-05-03 22:40 | 50.36719 | -121.35299 | 36987 ft | 413 kts | 48° |
| 2026-05-03 22:41 | 50.40206 | -121.28124 | 36966 ft | 414 kts | 49° |
| 2026-05-03 22:41 | 50.43698 | -121.20918 | 36973 ft | 415 kts | 48° |
| 2026-05-03 22:42 | 50.47162 | -121.13751 | 36973 ft | 415 kts | 49° |
| 2026-05-03 22:42 | 50.50642 | -121.06529 | 36977 ft | 415 kts | 49° |
| 2026-05-03 22:43 | 50.54124 | -120.99284 | 36974 ft | 416 kts | 49° |
| 2026-05-03 22:43 | 50.57608 | -120.92017 | 36975 ft | 416 kts | 49° |
| 2026-05-03 22:43 | 50.59348 | -120.88378 | 37096 ft | 417 kts | 49° |
| 2026-05-03 22:44 | 50.61094 | -120.84721 | 37412 ft | 417 kts | 49° |
| 2026-05-03 22:44 | 50.62838 | -120.81067 | 37692 ft | 417 kts | 49° |
| 2026-05-03 22:44 | 50.64556 | -120.77462 | 37963 ft | 417 kts | 49° |
| 2026-05-03 22:44 | 50.66297 | -120.73798 | 38225 ft | 418 kts | 49° |
| 2026-05-03 22:45 | 50.68038 | -120.70134 | 38481 ft | 418 kts | 49° |
| 2026-05-03 22:45 | 50.69782 | -120.66456 | 38705 ft | 418 kts | 49° |
| 2026-05-03 22:45 | 50.71523 | -120.62780 | 38878 ft | 419 kts | 49° |
| 2026-05-03 22:46 | 50.75020 | -120.55381 | 38950 ft | 421 kts | 49° |
| 2026-05-03 22:46 | 50.78512 | -120.47971 | 38956 ft | 420 kts | 49° |
| 2026-05-03 22:47 | 50.81972 | -120.40612 | 38946 ft | 420 kts | 49° |
| 2026-05-03 22:47 | 50.85452 | -120.33184 | 38955 ft | 420 kts | 49° |
| 2026-05-03 22:48 | 50.88929 | -120.25743 | 38956 ft | 420 kts | 49° |
| 2026-05-03 22:48 | 50.92410 | -120.18273 | 38963 ft | 422 kts | 49° |
| 2026-05-03 22:49 | 50.95862 | -120.10844 | 38968 ft | 422 kts | 49° |
| 2026-05-03 22:49 | 50.99339 | -120.03339 | 38974 ft | 422 kts | 49° |
| 2026-05-03 22:50 | 51.02815 | -119.95814 | 38975 ft | 423 kts | 50° |
| 2026-05-03 22:50 | 51.06275 | -119.88303 | 38976 ft | 422 kts | 50° |
| 2026-05-03 22:51 | 51.09727 | -119.80788 | 38977 ft | 423 kts | 50° |
| 2026-05-03 22:51 | 51.13196 | -119.73214 | 38964 ft | 423 kts | 50° |
| 2026-05-03 22:52 | 51.16661 | -119.65625 | 38975 ft | 425 kts | 50° |
| 2026-05-03 22:52 | 51.20136 | -119.57994 | 38984 ft | 425 kts | 50° |
| 2026-05-03 22:53 | 51.23605 | -119.50353 | 38984 ft | 425 kts | 50° |
| 2026-05-03 22:53 | 51.27049 | -119.42743 | 38986 ft | 425 kts | 50° |
| 2026-05-03 22:54 | 51.30507 | -119.35080 | 38987 ft | 426 kts | 50° |
| 2026-05-03 22:54 | 51.33968 | -119.27388 | 38993 ft | 426 kts | 50° |
| 2026-05-03 22:55 | 51.37421 | -119.19693 | 38992 ft | 426 kts | 50° |
| 2026-05-03 22:55 | 51.40875 | -119.11972 | 38994 ft | 426 kts | 50° |
| 2026-05-03 22:56 | 51.44299 | -119.04295 | 38992 ft | 426 kts | 51° |
| 2026-05-03 22:56 | 51.47741 | -118.96554 | 38986 ft | 426 kts | 51° |
| 2026-05-03 22:57 | 51.51181 | -118.88794 | 38997 ft | 427 kts | 51° |
| 2026-05-03 22:57 | 51.54614 | -118.81028 | 38985 ft | 427 kts | 51° |
| 2026-05-03 22:58 | 51.58044 | -118.73244 | 38992 ft | 427 kts | 51° |
| 2026-05-03 22:58 | 51.61449 | -118.65495 | 38986 ft | 427 kts | 51° |
| 2026-05-03 22:59 | 51.64870 | -118.57685 | 38985 ft | 427 kts | 51° |
| 2026-05-03 22:59 | 51.68294 | -118.49848 | 38984 ft | 428 kts | 51° |
| 2026-05-03 23:00 | 51.71712 | -118.41993 | 38975 ft | 429 kts | 51° |
| 2026-05-03 23:00 | 51.75136 | -118.34107 | 38985 ft | 429 kts | 51° |
| 2026-05-03 23:01 | 51.78528 | -118.26270 | 38975 ft | 428 kts | 51° |
| 2026-05-03 23:01 | 51.81935 | -118.18374 | 38999 ft | 428 kts | 51° |
| 2026-05-03 23:02 | 51.85335 | -118.10467 | 38976 ft | 428 kts | 51° |
| 2026-05-03 23:02 | 51.88732 | -118.02544 | 38978 ft | 429 kts | 51° |
| 2026-05-03 23:03 | 51.92126 | -117.94605 | 38974 ft | 429 kts | 51° |
| 2026-05-03 23:03 | 51.95491 | -117.86707 | 39006 ft | 429 kts | 52° |
| 2026-05-03 23:04 | 51.98874 | -117.78747 | 38960 ft | 428 kts | 52° |
| 2026-05-03 23:04 | 52.02256 | -117.70761 | 39005 ft | 429 kts | 52° |
| 2026-05-03 23:05 | 52.05660 | -117.62850 | 39037 ft | 425 kts | 51° |
| 2026-05-03 23:05 | 52.09084 | -117.55040 | 39005 ft | 427 kts | 51° |
| 2026-05-03 23:06 | 52.12521 | -117.47151 | 39024 ft | 428 kts | 51° |
| 2026-05-03 23:06 | 52.15954 | -117.39247 | 39047 ft | 429 kts | 51° |
| 2026-05-03 23:07 | 52.19385 | -117.31323 | 39036 ft | 428 kts | 51° |
| 2026-05-03 23:07 | 52.22817 | -117.23373 | 39031 ft | 428 kts | 51° |
| 2026-05-03 23:08 | 52.26217 | -117.15473 | 39050 ft | 430 kts | 51° |
| 2026-05-03 23:08 | 52.29645 | -117.07481 | 39030 ft | 429 kts | 51° |
| 2026-05-03 23:09 | 52.33064 | -116.99486 | 39048 ft | 429 kts | 51° |
| 2026-05-03 23:09 | 52.36481 | -116.91472 | 39033 ft | 430 kts | 51° |
| 2026-05-03 23:10 | 52.39870 | -116.83495 | 38992 ft | 429 kts | 51° |
| 2026-05-03 23:10 | 52.43276 | -116.75456 | 39021 ft | 430 kts | 51° |
| 2026-05-03 23:11 | 52.46677 | -116.67404 | 39024 ft | 430 kts | 51° |
| 2026-05-03 23:11 | 52.50074 | -116.59335 | 39012 ft | 430 kts | 51° |
| 2026-05-03 23:12 | 52.53467 | -116.51252 | 39021 ft | 430 kts | 51° |
| 2026-05-03 23:12 | 52.56830 | -116.43213 | 39007 ft | 430 kts | 51° |
| 2026-05-03 23:13 | 52.60214 | -116.35100 | 39004 ft | 430 kts | 51° |
| 2026-05-03 23:13 | 52.63593 | -116.26977 | 38988 ft | 430 kts | 51° |
| 2026-05-03 23:14 | 52.66969 | -116.18831 | 38983 ft | 431 kts | 51° |
| 2026-05-03 23:14 | 52.70342 | -116.10663 | 38981 ft | 431 kts | 51° |
| 2026-05-03 23:14 | 52.71994 | -116.06656 | 38596 ft | 427 kts | 51° |
| 2026-05-03 23:15 | 52.73661 | -116.02606 | 37902 ft | 426 kts | 51° |
| 2026-05-03 23:15 | 52.75315 | -115.98581 | 37275 ft | 423 kts | 51° |
| 2026-05-03 23:15 | 52.76964 | -115.94564 | 36572 ft | 422 kts | 50° |
| 2026-05-03 23:15 | 52.78611 | -115.90545 | 35831 ft | 423 kts | 50° |
| 2026-05-03 23:16 | 52.80257 | -115.86519 | 35117 ft | 423 kts | 50° |
| 2026-05-03 23:16 | 52.81905 | -115.82484 | 34381 ft | 423 kts | 50° |
| 2026-05-03 23:16 | 52.83552 | -115.78445 | 33591 ft | 424 kts | 50° |
| 2026-05-03 23:16 | 52.85198 | -115.74398 | 32806 ft | 423 kts | 50° |
| 2026-05-03 23:17 | 52.86829 | -115.70383 | 32256 ft | 417 kts | 49° |
| 2026-05-03 23:17 | 52.88437 | -115.66423 | 31752 ft | 412 kts | 49° |
| 2026-05-03 23:17 | 52.89998 | -115.62570 | 31229 ft | 407 kts | 49° |
| 2026-05-03 23:17 | 52.91568 | -115.58687 | 30684 ft | 404 kts | 49° |
| 2026-05-03 23:18 | 52.93122 | -115.54841 | 30144 ft | 401 kts | 49° |
| 2026-05-03 23:18 | 52.94665 | -115.51013 | 29542 ft | 398 kts | 49° |
| 2026-05-03 23:18 | 52.96195 | -115.47213 | 28978 ft | 394 kts | 49° |
| 2026-05-03 23:18 | 52.97707 | -115.43453 | 28473 ft | 390 kts | 49° |
| 2026-05-03 23:19 | 52.98701 | -115.40978 | 28133 ft | 387 kts | 49° |
| 2026-05-03 23:19 | 53.00189 | -115.37269 | 27628 ft | 384 kts | 49° |
| 2026-05-03 23:19 | 53.01661 | -115.33595 | 27126 ft | 384 kts | 50° |
| 2026-05-03 23:19 | 53.03148 | -115.29878 | 26604 ft | 388 kts | 50° |
| 2026-05-03 23:20 | 53.05139 | -115.24890 | 25934 ft | 392 kts | 50° |
| 2026-05-03 23:20 | 53.06641 | -115.21120 | 25430 ft | 391 kts | 50° |
| 2026-05-03 23:20 | 53.08137 | -115.17362 | 24927 ft | 390 kts | 50° |
| 2026-05-03 23:20 | 53.09147 | -115.14822 | 24589 ft | 389 kts | 51° |
| 2026-05-03 23:21 | 53.10615 | -115.11123 | 24095 ft | 387 kts | 51° |
| 2026-05-03 23:21 | 53.12096 | -115.07386 | 23600 ft | 386 kts | 51° |
| 2026-05-03 23:21 | 53.13567 | -115.03674 | 23033 ft | 384 kts | 51° |
| 2026-05-03 23:21 | 53.15032 | -114.99966 | 22510 ft | 382 kts | 51° |
| 2026-05-03 23:22 | 53.17927 | -114.92625 | 21585 ft | 376 kts | 51° |
| 2026-05-03 23:22 | 53.19358 | -114.88989 | 21123 ft | 374 kts | 51° |
| 2026-05-03 23:22 | 53.20780 | -114.85373 | 20676 ft | 371 kts | 51° |
| 2026-05-03 23:23 | 53.22190 | -114.81781 | 20230 ft | 370 kts | 51° |
| 2026-05-03 23:23 | 53.23597 | -114.78194 | 19792 ft | 368 kts | 51° |
| 2026-05-03 23:23 | 53.24976 | -114.74672 | 19365 ft | 367 kts | 51° |
| 2026-05-03 23:23 | 53.26348 | -114.71088 | 18912 ft | 368 kts | 55° |
| 2026-05-03 23:24 | 53.27202 | -114.66988 | 18487 ft | 381 kts | 75° |
| 2026-05-03 23:24 | 53.27430 | -114.62537 | 18059 ft | 388 kts | 82° |
| 2026-05-03 23:24 | 53.27581 | -114.58020 | 17602 ft | 388 kts | 82° |
| 2026-05-03 23:24 | 53.27711 | -114.53523 | 17197 ft | 387 kts | 83° |
| 2026-05-03 23:25 | 53.27826 | -114.49040 | 16752 ft | 385 kts | 83° |
| 2026-05-03 23:25 | 53.27933 | -114.44586 | 16309 ft | 383 kts | 83° |
| 2026-05-03 23:25 | 53.28035 | -114.40137 | 15863 ft | 382 kts | 83° |
| 2026-05-03 23:25 | 53.28135 | -114.35721 | 15428 ft | 380 kts | 83° |
| 2026-05-03 23:26 | 53.28231 | -114.31328 | 14990 ft | 378 kts | 83° |
| 2026-05-03 23:26 | 53.28325 | -114.27013 | 14556 ft | 376 kts | 83° |
| 2026-05-03 23:26 | 53.28417 | -114.22658 | 14126 ft | 374 kts | 84° |
| 2026-05-03 23:26 | 53.28508 | -114.18323 | 13697 ft | 373 kts | 84° |
| 2026-05-03 23:27 | 53.28596 | -114.14007 | 13210 ft | 371 kts | 84° |
| 2026-05-03 23:27 | 53.28683 | -114.09712 | 12768 ft | 367 kts | 84° |
| 2026-05-03 23:27 | 53.28766 | -114.05530 | 12347 ft | 354 kts | 84° |
| 2026-05-03 23:27 | 53.28886 | -114.01499 | 11925 ft | 341 kts | 82° |
| 2026-05-03 23:28 | 53.29040 | -113.97611 | 11499 ft | 330 kts | 82° |
| 2026-05-03 23:28 | 53.29182 | -113.93899 | 11135 ft | 319 kts | 82° |
| 2026-05-03 23:28 | 53.29317 | -113.90252 | 10772 ft | 310 kts | 83° |
| 2026-05-03 23:28 | 53.29448 | -113.86707 | 10415 ft | 302 kts | 83° |
| 2026-05-03 23:29 | 53.29575 | -113.83210 | 10068 ft | 302 kts | 83° |
| 2026-05-03 23:29 | 53.29531 | -113.79702 | 9658 ft | 307 kts | 100° |
| 2026-05-03 23:29 | 53.28654 | -113.76449 | 9245 ft | 310 kts | 128° |
| 2026-05-03 23:29 | 53.27183 | -113.73842 | 8909 ft | 308 kts | 135° |
| 2026-05-03 23:30 | 53.25676 | -113.71310 | 8572 ft | 305 kts | 135° |
| 2026-05-03 23:30 | 53.24204 | -113.68838 | 8223 ft | 295 kts | 135° |
| 2026-05-03 23:30 | 53.22796 | -113.66476 | 7870 ft | 288 kts | 135° |
| 2026-05-03 23:30 | 53.21401 | -113.64143 | 7515 ft | 280 kts | 135° |
| 2026-05-03 23:31 | 53.20046 | -113.61880 | 7217 ft | 272 kts | 135° |
| 2026-05-03 23:31 | 53.18748 | -113.59701 | 7157 ft | 257 kts | 135° |
| 2026-05-03 23:31 | 53.17491 | -113.57587 | 7195 ft | 256 kts | 135° |
| 2026-05-03 23:31 | 53.16239 | -113.55474 | 7210 ft | 257 kts | 134° |
| 2026-05-03 23:32 | 53.14985 | -113.53352 | 7186 ft | 257 kts | 135° |
| 2026-05-03 23:32 | 53.13730 | -113.51236 | 7159 ft | 257 kts | 135° |
| 2026-05-03 23:32 | 53.12467 | -113.49124 | 7101 ft | 258 kts | 135° |
| 2026-05-03 23:32 | 53.11296 | -113.46935 | 6849 ft | 256 kts | 124° |
| 2026-05-03 23:33 | 53.10526 | -113.44324 | 6562 ft | 248 kts | 99° |
| 2026-05-03 23:33 | 53.10526 | -113.41557 | 6257 ft | 234 kts | 70° |
| 2026-05-03 23:33 | 53.11216 | -113.39251 | 6012 ft | 216 kts | 44° |
| 2026-05-03 23:33 | 53.12334 | -113.37763 | 5817 ft | 199 kts | 19° |
| 2026-05-03 23:34 | 53.13652 | -113.37135 | 5702 ft | 197 kts | 3° |
| 2026-05-03 23:34 | 53.15008 | -113.36840 | 5593 ft | 198 kts | 6° |
| 2026-05-03 23:34 | 53.16361 | -113.36669 | 5417 ft | 192 kts | 345° |
| 2026-05-03 23:34 | 53.17519 | -113.37666 | 5263 ft | 189 kts | 318° |
| 2026-05-03 23:35 | 53.18424 | -113.39202 | 5108 ft | 187 kts | 314° |
| 2026-05-03 23:35 | 53.19320 | -113.40737 | 4900 ft | 183 kts | 315° |
| 2026-05-03 23:35 | 53.20204 | -113.42211 | 4700 ft | 175 kts | 316° |
| 2026-05-03 23:35 | 53.21048 | -113.43611 | 4491 ft | 168 kts | 316° |
| 2026-05-03 23:36 | 53.21857 | -113.44957 | 4249 ft | 161 kts | 315° |
| 2026-05-03 23:36 | 53.22627 | -113.46236 | 4072 ft | 152 kts | 316° |
| 2026-05-03 23:36 | 53.23354 | -113.47446 | 3872 ft | 142 kts | 316° |
| 2026-05-03 23:36 | 53.24009 | -113.48538 | 3735 ft | 125 kts | 317° |
| 2026-05-03 23:37 | 53.24615 | -113.49545 | 3558 ft | 122 kts | 316° |
| 2026-05-03 23:37 | 53.25209 | -113.50533 | 3380 ft | 120 kts | 317° |
| 2026-05-03 23:37 | 53.25802 | -113.51521 | 3201 ft | 123 kts | 316° |
| 2026-05-03 23:37 | 53.26408 | -113.52530 | 3036 ft | 123 kts | 317° |
| 2026-05-03 23:38 | 53.27011 | -113.53550 | 2866 ft | 124 kts | 316° |
| 2026-05-03 23:38 | 53.27642 | -113.54610 | 2698 ft | 131 kts | 318° |
| 2026-05-03 23:38 | 53.28272 | -113.55659 | 2523 ft | 125 kts | 318° |
| 2026-05-03 23:38 | 53.28866 | -113.56640 | 2381 ft | 113 kts | 318° |
| 2026-05-03 23:39 | 53.29334 | -113.57407 | 2368 ft | 70 kts | 314° |
| 2026-05-03 23:39 | 53.29611 | -113.57872 | 2360 ft | 53 kts | 314° |
| 2026-05-03 23:39 | 53.29847 | -113.58211 | 2358 ft | 25 kts | 353° |
| 2026-05-03 23:39 | 53.29980 | -113.58206 | 2354 ft | 0 kts | 1° |
| 2026-05-03 23:40 | 53.29981 | -113.58206 | 2354 ft | 1 kts | 1° |
| 2026-05-03 23:40 | 53.30033 | -113.58205 | 2353 ft | 14 kts | 359° |